Time;durP1;ratioP1;P1;durP2;ratioP2;P2;SDS_P1;SDS_P2;PMS_P1;PMS_P2;Temp;Humidity;BMP_temperature;BMP_pressure;BME280_temperature;BME280_humidity;BME280_pressure;Samples;Min_cycle;Max_cycle;Signal;HPM_P1;HPM_P2
2021/12/26 00:00:17;;;;;;;4.73;4.30;;;6.20;99.90;;;;;;5012216;28;20229;-62
2021/12/26 00:02:45;;;;;;;4.37;4.07;;;6.10;99.90;;;;;;5009511;28;20682;-64
2021/12/26 00:05:13;;;;;;;4.20;3.90;;;6.00;99.90;;;;;;5009015;28;20205;-62
2021/12/26 00:07:40;;;;;;;3.80;3.50;;;6.10;99.90;;;;;;5008756;28;20285;-63
2021/12/26 00:10:10;;;;;;;3.50;3.30;;;6.00;99.90;;;;;;5011371;28;20207;-62
2021/12/26 00:12:39;;;;;;;4.03;3.83;;;6.10;99.90;;;;;;5012367;28;20275;-62
2021/12/26 00:15:07;;;;;;;3.57;3.37;;;6.10;99.90;;;;;;5011965;28;20235;-61
2021/12/26 00:17:34;;;;;;;3.50;3.30;;;6.20;99.90;;;;;;5012253;28;20294;-62
2021/12/26 00:20:01;;;;;;;3.70;3.50;;;6.30;99.90;;;;;;5013293;28;20441;-62
2021/12/26 00:22:28;;;;;;;3.77;3.57;;;6.30;99.90;;;;;;5012122;28;20264;-61
2021/12/26 00:24:55;;;;;;;3.20;3.00;;;6.30;99.90;;;;;;5015249;28;20229;-61
2021/12/26 00:27:22;;;;;;;3.63;3.43;;;6.40;99.90;;;;;;5018884;28;20764;-64
2021/12/26 00:29:50;;;;;;;3.23;3.03;;;6.40;99.90;;;;;;5013845;28;20940;-62
2021/12/26 00:32:18;;;;;;;3.30;3.10;;;6.40;99.90;;;;;;5010476;28;20252;-63
2021/12/26 00:34:45;;;;;;;2.93;2.73;;;6.50;99.90;;;;;;5012365;28;20283;-62
2021/12/26 00:37:12;;;;;;;2.80;2.60;;;6.50;99.90;;;;;;5014063;28;20225;-62
2021/12/26 00:39:39;;;;;;;3.00;2.80;;;6.60;99.90;;;;;;5014817;28;20233;-62
2021/12/26 00:42:06;;;;;;;3.10;2.90;;;6.60;99.90;;;;;;5014306;28;20648;-62
2021/12/26 00:44:38;;;;;;;3.10;2.90;;;6.60;99.90;;;;;;5015519;28;20206;-61
2021/12/26 00:47:07;;;;;;;2.90;2.80;;;6.60;99.90;;;;;;5014558;28;20197;-63
2021/12/26 00:49:34;;;;;;;2.80;2.70;;;6.60;99.90;;;;;;5017800;28;20308;-61
2021/12/26 00:52:01;;;;;;;2.77;2.67;;;6.60;99.90;;;;;;5011293;28;20260;-62
2021/12/26 00:54:28;;;;;;;2.50;2.40;;;6.50;99.90;;;;;;5015800;28;20240;-63
2021/12/26 00:56:56;;;;;;;2.30;2.20;;;6.50;99.90;;;;;;5013442;28;20241;-63
2021/12/26 00:59:23;;;;;;;2.50;2.40;;;6.60;99.90;;;;;;5015365;28;20290;-61
2021/12/26 01:01:50;;;;;;;2.33;2.23;;;6.50;99.90;;;;;;5015071;28;20312;-61
2021/12/26 01:04:19;;;;;;;2.73;2.63;;;6.50;99.90;;;;;;5013986;28;20263;-63
2021/12/26 01:06:46;;;;;;;2.30;2.20;;;6.50;99.90;;;;;;5011945;28;20237;-62
2021/12/26 01:09:19;;;;;;;2.30;2.20;;;6.50;99.90;;;;;;5014452;28;20244;-63
2021/12/26 01:11:50;;;;;;;2.70;2.60;;;6.50;99.90;;;;;;5011651;28;20215;-64
2021/12/26 01:14:24;;;;;;;2.70;2.60;;;6.50;99.90;;;;;;5014754;28;20221;-63
2021/12/26 01:17:00;;;;;;;2.20;2.10;;;6.40;99.90;;;;;;5015155;28;20292;-62
2021/12/26 01:19:36;;;;;;;2.30;2.20;;;6.40;99.90;;;;;;5014869;28;20779;-63
2021/12/26 01:22:03;;;;;;;2.20;2.10;;;6.30;99.90;;;;;;5020413;28;20228;-62
2021/12/26 01:24:30;;;;;;;2.33;2.23;;;6.30;99.90;;;;;;5028282;28;20201;-61
2021/12/26 01:26:57;;;;;;;2.30;2.20;;;6.30;99.90;;;;;;5023954;28;20293;-62
2021/12/26 01:29:23;;;;;;;2.43;2.33;;;6.20;99.90;;;;;;5016077;28;20260;-63
2021/12/26 01:31:50;;;;;;;2.40;2.30;;;6.10;99.90;;;;;;5014259;28;20264;-62
2021/12/26 01:34:17;;;;;;;2.47;2.37;;;6.00;99.90;;;;;;5015213;28;20291;-64
2021/12/26 01:36:46;;;;;;;2.50;2.40;;;6.00;99.90;;;;;;5015035;28;20676;-61
2021/12/26 01:39:13;;;;;;;2.70;2.60;;;5.90;99.90;;;;;;5012967;28;20229;-63
2021/12/26 01:41:42;;;;;;;2.47;2.37;;;5.90;99.90;;;;;;5021185;28;20267;-62
2021/12/26 01:44:12;;;;;;;2.50;2.40;;;5.90;99.90;;;;;;5026091;28;20202;-63
2021/12/26 01:46:40;;;;;;;2.50;2.40;;;5.90;99.90;;;;;;5023051;28;20251;-63
2021/12/26 01:49:11;;;;;;;2.57;2.47;;;5.90;99.90;;;;;;5027299;28;20236;-62
2021/12/26 01:51:39;;;;;;;3.00;2.80;;;5.90;99.90;;;;;;5015239;28;20205;-62
2021/12/26 01:54:10;;;;;;;2.97;2.77;;;5.90;99.90;;;;;;5016937;28;20280;-61
2021/12/26 01:56:38;;;;;;;2.60;2.50;;;5.80;99.90;;;;;;5023026;28;20263;-63
2021/12/26 01:59:06;;;;;;;3.07;2.87;;;5.80;99.90;;;;;;5013927;28;20316;-63
2021/12/26 02:01:34;;;;;;;2.50;2.40;;;5.80;99.90;;;;;;5013572;28;20300;-63
2021/12/26 02:04:01;;;;;;;2.80;2.70;;;5.70;99.90;;;;;;5014563;28;20296;-62
2021/12/26 02:06:28;;;;;;;2.80;2.70;;;5.70;99.90;;;;;;5013629;28;20296;-62
2021/12/26 02:08:55;;;;;;;2.23;2.13;;;5.70;99.90;;;;;;5013774;28;20300;-63
2021/12/26 02:11:23;;;;;;;2.33;2.23;;;5.70;99.90;;;;;;5022424;28;20295;-62
2021/12/26 02:13:50;;;;;;;2.50;2.40;;;5.70;99.90;;;;;;5014952;28;20384;-62
2021/12/26 02:16:17;;;;;;;2.60;2.50;;;5.70;99.90;;;;;;5012793;28;20296;-63
2021/12/26 02:18:44;;;;;;;2.20;2.10;;;5.80;99.90;;;;;;5014334;28;21592;-62
2021/12/26 02:21:24;;;;;;;2.30;2.20;;;5.80;99.90;;;;;;5014349;28;20236;-63
2021/12/26 02:23:58;;;;;;;2.40;2.30;;;5.80;99.90;;;;;;5017623;28;20299;-63
2021/12/26 02:29:09;;;;;;;2.20;2.10;;;5.70;99.90;;;;;;5015289;28;20188;-63
2021/12/26 02:31:36;;;;;;;2.27;2.17;;;5.80;99.90;;;;;;5014183;28;20719;-63
2021/12/26 02:34:03;;;;;;;2.20;2.10;;;5.80;99.90;;;;;;5014352;28;20564;-63
2021/12/26 02:36:32;;;;;;;2.40;2.30;;;5.80;99.90;;;;;;5014877;28;20205;-63
2021/12/26 02:38:59;;;;;;;2.10;2.00;;;5.80;99.90;;;;;;5016188;28;20224;-62
2021/12/26 02:41:26;;;;;;;2.20;2.10;;;5.80;99.90;;;;;;5015576;28;20216;-62
2021/12/26 02:43:53;;;;;;;2.03;1.93;;;5.80;99.90;;;;;;5017329;28;20229;-63
2021/12/26 02:46:20;;;;;;;2.23;2.07;;;5.80;99.90;;;;;;5019439;28;20645;-61
2021/12/26 02:48:47;;;;;;;2.10;2.00;;;5.80;99.90;;;;;;5020803;28;20236;-61
2021/12/26 02:51:14;;;;;;;2.00;1.90;;;5.80;99.90;;;;;;5019512;28;20228;-63
2021/12/26 02:53:43;;;;;;;2.13;2.03;;;5.80;99.90;;;;;;5017818;28;20260;-61
2021/12/26 02:56:10;;;;;;;2.03;1.93;;;5.70;99.90;;;;;;5011699;28;20276;-62
2021/12/26 02:58:37;;;;;;;2.20;2.10;;;5.80;99.90;;;;;;5022867;28;20244;-63
2021/12/26 03:01:07;;;;;;;2.50;2.40;;;5.90;99.90;;;;;;5027970;28;20232;-63
2021/12/26 03:03:34;;;;;;;2.67;2.57;;;5.80;99.90;;;;;;5015841;28;20229;-62
2021/12/26 03:06:08;;;;;;;2.30;2.20;;;5.70;99.90;;;;;;5016531;28;20236;-62
2021/12/26 03:08:35;;;;;;;2.93;2.73;;;5.70;99.90;;;;;;5012947;28;20270;-62
2021/12/26 03:11:04;;;;;;;2.30;2.20;;;5.70;99.90;;;;;;5015648;28;20558;-62
2021/12/26 03:13:32;;;;;;;2.80;2.70;;;5.70;99.90;;;;;;5014985;28;20324;-62
2021/12/26 03:15:59;;;;;;;2.90;2.70;;;5.70;99.90;;;;;;5016935;28;20217;-62
2021/12/26 03:18:26;;;;;;;2.60;2.50;;;5.60;99.90;;;;;;5015015;28;20221;-63
2021/12/26 03:20:53;;;;;;;2.60;2.50;;;5.60;99.90;;;;;;5016586;28;20300;-60
2021/12/26 03:23:24;;;;;;;2.60;2.50;;;5.70;99.90;;;;;;5026549;28;20236;-64
2021/12/26 03:25:54;;;;;;;2.57;2.47;;;5.80;99.90;;;;;;5018363;28;20221;-61
2021/12/26 03:28:22;;;;;;;2.50;2.40;;;5.70;99.90;;;;;;5010670;28;20217;-64
2021/12/26 03:30:51;;;;;;;2.60;2.50;;;5.70;99.90;;;;;;5016381;28;20288;-63
2021/12/26 03:33:18;;;;;;;2.10;2.00;;;5.80;99.90;;;;;;5011975;28;20224;-62
2021/12/26 03:35:45;;;;;;;2.20;2.10;;;5.80;99.90;;;;;;5015765;28;20639;-67
2021/12/26 03:38:13;;;;;;;2.53;2.43;;;5.90;99.90;;;;;;5013055;28;20744;-62
2021/12/26 03:40:41;;;;;;;2.30;2.20;;;5.80;99.90;;;;;;5013258;28;20280;-63
2021/12/26 03:43:09;;;;;;;2.40;2.30;;;5.70;99.90;;;;;;5034639;28;20302;-62
2021/12/26 03:45:37;;;;;;;2.07;1.97;;;5.60;99.90;;;;;;5037722;28;20215;-63
2021/12/26 03:48:04;;;;;;;2.00;1.90;;;5.80;99.90;;;;;;5026971;28;20201;-63
2021/12/26 03:50:32;;;;;;;2.20;2.10;;;5.90;99.90;;;;;;5027977;28;20239;-63
2021/12/26 03:53:02;;;;;;;2.57;2.47;;;5.90;99.90;;;;;;5048043;22;20322;-66
2021/12/26 03:55:29;;;;;;;2.40;2.30;;;5.70;99.90;;;;;;5035439;28;20228;-68
2021/12/26 03:57:56;;;;;;;2.37;2.27;;;5.70;99.90;;;;;;5029783;28;22102;-68
2021/12/26 04:00:25;;;;;;;2.10;2.00;;;5.50;99.90;;;;;;5030453;28;20205;-68
2021/12/26 04:02:53;;;;;;;2.27;2.17;;;5.70;99.90;;;;;;5030165;28;20230;-67
2021/12/26 04:05:21;;;;;;;2.37;2.27;;;5.60;99.90;;;;;;5030936;28;20208;-68
2021/12/26 04:07:48;;;;;;;2.17;2.07;;;5.70;99.90;;;;;;5033559;28;20209;-67
2021/12/26 04:10:16;;;;;;;2.37;2.27;;;5.80;99.90;;;;;;5032281;28;20240;-68
2021/12/26 04:12:47;;;;;;;2.40;2.30;;;5.70;99.90;;;;;;5032357;28;20296;-68
2021/12/26 04:15:17;;;;;;;2.60;2.50;;;5.80;99.90;;;;;;5037213;28;20316;-69
2021/12/26 04:17:44;;;;;;;2.60;2.50;;;5.60;99.90;;;;;;5039127;28;20243;-68
2021/12/26 04:20:13;;;;;;;2.43;2.33;;;5.50;99.90;;;;;;5037303;28;20292;-69
2021/12/26 04:22:40;;;;;;;2.37;2.27;;;5.50;99.90;;;;;;5039444;28;20208;-68
2021/12/26 04:25:08;;;;;;;2.30;2.20;;;5.60;99.90;;;;;;5037606;28;20204;-69
2021/12/26 04:27:35;;;;;;;2.77;2.67;;;5.60;99.90;;;;;;5040431;28;20270;-68
2021/12/26 04:30:02;;;;;;;2.43;2.33;;;5.60;99.90;;;;;;5046208;28;20269;-70
2021/12/26 04:32:29;;;;;;;2.43;2.33;;;5.60;99.90;;;;;;5046655;28;20719;-65
2021/12/26 04:34:56;;;;;;;2.57;2.47;;;5.50;99.90;;;;;;5055783;28;20612;-67
2021/12/26 04:37:24;;;;;;;3.17;2.97;;;5.60;99.90;;;;;;5048629;28;20239;-68
2021/12/26 04:39:51;;;;;;;3.50;3.30;;;5.60;99.90;;;;;;5049311;28;20311;-68
2021/12/26 04:42:18;;;;;;;2.93;2.83;;;5.40;99.90;;;;;;5046802;28;20213;-68
2021/12/26 04:44:45;;;;;;;2.80;2.60;;;5.30;99.90;;;;;;5036142;28;20228;-67
2021/12/26 04:47:12;;;;;;;2.70;2.60;;;5.30;99.90;;;;;;5036903;28;20246;-69
2021/12/26 04:49:39;;;;;;;2.60;2.50;;;5.40;99.90;;;;;;5035493;28;20439;-68
2021/12/26 04:52:06;;;;;;;2.60;2.50;;;5.40;99.90;;;;;;5035946;28;20287;-68
2021/12/26 04:54:34;;;;;;;3.30;3.10;;;5.60;99.90;;;;;;5035981;28;20279;-67
2021/12/26 04:57:01;;;;;;;2.90;2.77;;;5.60;99.90;;;;;;5037832;28;20255;-67
2021/12/26 04:59:28;;;;;;;3.00;2.80;;;5.50;99.90;;;;;;5045316;28;20289;-67
2021/12/26 05:01:55;;;;;;;2.80;2.70;;;5.70;99.90;;;;;;5048663;28;20220;-67
2021/12/26 05:04:22;;;;;;;2.90;2.70;;;5.50;99.90;;;;;;5036751;28;20307;-66
2021/12/26 05:06:49;;;;;;;3.17;2.97;;;5.40;99.90;;;;;;5040662;28;20205;-68
2021/12/26 05:09:16;;;;;;;2.63;2.53;;;5.50;99.90;;;;;;5046150;28;20215;-68
2021/12/26 05:11:44;;;;;;;3.17;2.97;;;5.50;99.90;;;;;;5034892;28;20596;-68
2021/12/26 05:14:11;;;;;;;2.80;2.60;;;5.60;99.90;;;;;;5034678;28;20263;-68
2021/12/26 05:16:38;;;;;;;3.00;2.80;;;5.60;99.90;;;;;;5034284;28;20736;-67
2021/12/26 05:19:05;;;;;;;2.90;2.70;;;5.60;99.90;;;;;;5034135;28;20801;-68
2021/12/26 05:21:32;;;;;;;2.77;2.63;;;5.50;99.90;;;;;;5033945;28;20189;-66
2021/12/26 05:23:59;;;;;;;3.30;3.10;;;5.50;99.90;;;;;;5033741;28;20319;-67
2021/12/26 05:26:26;;;;;;;3.30;3.10;;;5.50;99.90;;;;;;5032982;28;20209;-68
2021/12/26 05:28:54;;;;;;;3.10;2.90;;;5.40;99.90;;;;;;5033257;28;20200;-68
2021/12/26 05:31:21;;;;;;;4.23;3.93;;;5.50;99.90;;;;;;5034530;28;20275;-67
2021/12/26 05:33:48;;;;;;;3.17;2.97;;;5.60;99.90;;;;;;5033909;28;20239;-67
2021/12/26 05:36:15;;;;;;;3.90;3.60;;;5.40;99.90;;;;;;5033620;28;20208;-66
2021/12/26 05:38:42;;;;;;;3.07;2.97;;;5.40;99.90;;;;;;5034115;28;20659;-66
2021/12/26 05:41:09;;;;;;;2.50;2.40;;;5.50;99.90;;;;;;5033898;28;20243;-67
2021/12/26 05:43:36;;;;;;;2.93;2.83;;;5.60;99.90;;;;;;5033729;28;20316;-68
2021/12/26 05:46:04;;;;;;;3.08;2.88;;;5.60;99.90;;;;;;5033443;28;20712;-69
2021/12/26 05:48:31;;;;;;;3.07;2.87;;;5.60;99.90;;;;;;5033639;28;20676;-68
2021/12/26 05:50:58;;;;;;;2.90;2.70;;;5.60;99.90;;;;;;5033584;28;20208;-68
2021/12/26 05:53:25;;;;;;;3.37;3.07;;;5.60;99.90;;;;;;5033368;28;20776;-66
2021/12/26 05:55:52;;;;;;;3.57;3.37;;;5.60;99.90;;;;;;5033560;28;20678;-66
2021/12/26 05:58:18;;;;;;;3.83;3.63;;;5.60;99.90;;;;;;5033070;28;20242;-69
2021/12/26 06:00:45;;;;;;;3.37;3.17;;;5.50;99.90;;;;;;5033577;28;20292;-67
2021/12/26 06:03:14;;;;;;;3.23;3.03;;;5.50;99.90;;;;;;5033485;28;20220;-67
2021/12/26 06:05:41;;;;;;;3.10;2.90;;;5.60;99.90;;;;;;5033156;28;20247;-68
2021/12/26 06:08:08;;;;;;;3.60;3.40;;;5.60;99.90;;;;;;5033278;28;20244;-68
2021/12/26 06:10:35;;;;;;;3.13;2.97;;;5.60;99.90;;;;;;5033805;28;20240;-68
2021/12/26 06:13:02;;;;;;;3.27;3.00;;;5.60;99.90;;;;;;5033522;28;20307;-69
2021/12/26 06:15:29;;;;;;;3.00;2.80;;;5.70;99.90;;;;;;5033436;28;20733;-68
2021/12/26 06:17:56;;;;;;;4.37;3.57;;;5.70;99.90;;;;;;5033185;28;20219;-68
2021/12/26 06:20:24;;;;;;;3.90;3.50;;;5.60;99.90;;;;;;5033680;28;20339;-68
2021/12/26 06:22:51;;;;;;;3.77;3.20;;;5.60;99.90;;;;;;5033567;28;20204;-69
2021/12/26 06:25:18;;;;;;;3.63;3.43;;;5.50;99.90;;;;;;5033328;28;20204;-68
2021/12/26 06:27:45;;;;;;;3.17;3.07;;;5.50;99.90;;;;;;5033630;28;20244;-67
2021/12/26 06:30:12;;;;;;;5.10;3.50;;;5.60;99.90;;;;;;5036261;28;20244;-67
2021/12/26 06:32:40;;;;;;;3.90;3.60;;;5.60;99.90;;;;;;5033492;28;20211;-68
2021/12/26 06:35:08;;;;;;;3.60;3.40;;;5.60;99.90;;;;;;5032996;28;20246;-68
2021/12/26 06:37:37;;;;;;;3.67;3.40;;;5.60;99.90;;;;;;5033568;28;20213;-69
2021/12/26 06:40:06;;;;;;;4.43;4.03;;;5.50;99.90;;;;;;5033419;28;20231;-69
2021/12/26 06:42:35;;;;;;;3.80;3.50;;;5.40;99.90;;;;;;5033845;28;20295;-68
2021/12/26 06:45:02;;;;;;;2.93;2.83;;;5.40;99.90;;;;;;5035101;28;20213;-67
2021/12/26 06:47:29;;;;;;;2.70;2.60;;;5.50;99.90;;;;;;5033630;28;20612;-68
2021/12/26 06:49:56;;;;;;;2.87;2.77;;;5.60;99.90;;;;;;5035303;28;20274;-68
2021/12/26 06:52:23;;;;;;;2.70;2.50;;;5.80;99.90;;;;;;5034351;28;20287;-66
2021/12/26 06:54:51;;;;;;;2.80;2.70;;;6.00;99.90;;;;;;5032741;28;20331;-69
2021/12/26 06:57:18;;;;;;;3.13;3.00;;;6.00;99.90;;;;;;5032824;28;20295;-69
2021/12/26 06:59:45;;;;;;;3.20;3.00;;;6.00;99.90;;;;;;5033011;28;20238;-68
2021/12/26 07:02:12;;;;;;;3.10;3.00;;;6.00;99.90;;;;;;5032240;28;20220;-69
2021/12/26 07:04:39;;;;;;;3.00;2.90;;;6.00;99.90;;;;;;5033050;28;20661;-67
2021/12/26 07:07:05;;;;;;;4.10;3.80;;;6.00;99.90;;;;;;5032930;28;20204;-69
2021/12/26 07:09:32;;;;;;;3.20;3.00;;;5.90;99.90;;;;;;5032483;28;20201;-69
2021/12/26 07:12:01;;;;;;;3.30;3.10;;;5.90;99.90;;;;;;5033290;28;20248;-68
2021/12/26 07:14:28;;;;;;;3.33;3.13;;;5.90;99.90;;;;;;5032891;28;20259;-68
2021/12/26 07:16:54;;;;;;;2.50;2.40;;;6.10;99.90;;;;;;5035075;28;20208;-68
2021/12/26 07:19:21;;;;;;;3.30;3.17;;;6.10;99.90;;;;;;5047952;28;20252;-68
2021/12/26 07:21:48;;;;;;;3.13;2.97;;;6.10;99.90;;;;;;5031994;28;20244;-67
2021/12/26 07:24:16;;;;;;;3.30;3.10;;;6.00;99.90;;;;;;5031581;28;20856;-69
2021/12/26 07:26:44;;;;;;;3.07;2.97;;;6.00;99.90;;;;;;5032293;28;20213;-66
2021/12/26 07:29:12;;;;;;;3.57;3.37;;;6.00;99.90;;;;;;5032299;28;20211;-69
2021/12/26 07:31:39;;;;;;;3.70;3.50;;;6.00;99.90;;;;;;5031486;28;20639;-69
2021/12/26 07:34:07;;;;;;;3.87;3.60;;;5.90;99.90;;;;;;5031623;28;20706;-69
2021/12/26 07:36:33;;;;;;;3.87;3.67;;;5.90;99.90;;;;;;5032268;28;20212;-67
2021/12/26 07:39:00;;;;;;;3.87;3.57;;;5.90;99.90;;;;;;5031239;28;20291;-69
2021/12/26 07:41:27;;;;;;;3.80;3.60;;;5.80;99.90;;;;;;5031829;28;20204;-67
2021/12/26 07:43:54;;;;;;;4.43;4.23;;;5.70;99.90;;;;;;5028695;28;20258;-69
2021/12/26 07:46:23;;;;;;;6.87;5.33;;;5.60;99.90;;;;;;5030997;28;20239;-68
2021/12/26 07:48:50;;;;;;;6.23;5.63;;;5.60;99.90;;;;;;5031968;28;20255;-67
2021/12/26 07:51:19;;;;;;;4.47;4.20;;;5.50;99.90;;;;;;5033837;28;20580;-69
2021/12/26 07:53:46;;;;;;;4.70;4.30;;;5.40;99.90;;;;;;4987548;28;1372370;-68
2021/12/26 07:56:14;;;;;;;4.20;3.90;;;5.40;99.90;;;;;;5036910;28;20299;-66
2021/12/26 07:58:41;;;;;;;5.00;4.60;;;5.50;99.90;;;;;;5036241;28;20208;-66
2021/12/26 08:01:08;;;;;;;3.83;3.63;;;5.50;99.90;;;;;;5036331;28;20615;-66
2021/12/26 08:03:37;;;;;;;4.60;4.30;;;5.60;99.90;;;;;;5036680;28;20692;-67
2021/12/26 08:06:04;;;;;;;5.23;4.73;;;5.50;99.90;;;;;;5036105;28;20204;-68
2021/12/26 08:08:30;;;;;;;4.83;4.53;;;5.50;99.90;;;;;;5035914;28;20295;-67
2021/12/26 08:10:57;;;;;;;4.67;4.37;;;5.50;99.90;;;;;;5036454;28;20295;-67
2021/12/26 08:13:24;;;;;;;4.40;4.10;;;5.40;99.90;;;;;;5036237;28;20315;-66
2021/12/26 08:15:51;;;;;;;4.63;4.27;;;5.40;99.90;;;;;;5036507;28;20200;-67
2021/12/26 08:18:18;;;;;;;5.00;4.60;;;5.40;99.90;;;;;;5035606;28;20215;-66
2021/12/26 08:20:46;;;;;;;4.33;4.13;;;5.40;99.90;;;;;;5036376;28;20756;-68
2021/12/26 08:23:13;;;;;;;4.30;4.00;;;5.40;99.90;;;;;;5036589;28;20285;-68
2021/12/26 08:25:40;;;;;;;4.00;3.70;;;5.50;99.90;;;;;;5036473;28;20334;-68
2021/12/26 08:28:07;;;;;;;3.93;3.73;;;5.50;99.90;;;;;;5036068;28;20200;-67
2021/12/26 08:30:34;;;;;;;3.97;3.77;;;5.60;99.90;;;;;;5036119;28;20197;-67
2021/12/26 08:33:05;;;;;;;4.27;3.97;;;5.70;99.90;;;;;;5036677;28;20259;-68
2021/12/26 08:35:33;;;;;;;7.30;4.90;;;5.70;99.90;;;;;;5036255;28;20244;-68
2021/12/26 08:38:02;;;;;;;3.73;3.53;;;5.60;99.90;;;;;;5040373;28;20268;-67
2021/12/26 08:40:29;;;;;;;3.87;3.67;;;5.60;99.90;;;;;;5046652;28;20283;-66
2021/12/26 08:42:56;;;;;;;4.23;3.93;;;5.70;99.90;;;;;;5046215;28;20278;-67
2021/12/26 08:45:23;;;;;;;4.07;3.87;;;5.80;99.90;;;;;;5046832;28;20243;-67
2021/12/26 08:47:50;;;;;;;4.00;3.80;;;5.90;99.90;;;;;;5047627;28;20685;-67
2021/12/26 08:50:17;;;;;;;4.00;3.80;;;6.00;99.90;;;;;;5039619;28;20251;-67
2021/12/26 08:52:44;;;;;;;3.77;3.57;;;6.10;99.90;;;;;;5036073;28;20247;-68
2021/12/26 08:55:12;;;;;;;3.70;3.50;;;6.10;99.90;;;;;;5035448;28;20659;-68
2021/12/26 08:57:39;;;;;;;3.70;3.50;;;6.20;99.90;;;;;;5035304;28;20683;-67
2021/12/26 09:00:10;;;;;;;3.23;3.03;;;6.30;99.90;;;;;;5035420;28;20715;-68
2021/12/26 09:02:37;;;;;;;4.10;3.90;;;6.30;99.90;;;;;;5035431;28;20619;-68
2021/12/26 09:05:05;;;;;;;4.00;3.80;;;6.30;99.90;;;;;;5037152;28;20208;-67
2021/12/26 09:07:32;;;;;;;4.47;4.27;;;6.30;99.90;;;;;;5036595;28;20205;-68
2021/12/26 09:10:00;;;;;;;5.30;5.00;;;6.30;99.90;;;;;;5038111;28;20759;-67
2021/12/26 09:12:29;;;;;;;4.70;4.40;;;6.20;99.90;;;;;;5034928;28;20205;-68
2021/12/26 09:14:56;;;;;;;4.50;4.30;;;6.30;99.90;;;;;;5034178;28;20308;-68
2021/12/26 09:17:23;;;;;;;5.03;4.73;;;6.30;99.90;;;;;;5034106;28;20691;-66
2021/12/26 09:19:50;;;;;;;5.13;4.83;;;6.30;99.90;;;;;;5034913;28;20239;-67
2021/12/26 09:22:18;;;;;;;4.83;4.53;;;6.30;99.90;;;;;;5035068;28;20236;-66
2021/12/26 09:24:46;;;;;;;4.40;4.20;;;6.30;99.90;;;;;;5035490;28;20238;-66
2021/12/26 09:27:15;;;;;;;4.57;4.30;;;6.30;99.90;;;;;;5035574;28;20236;-67
2021/12/26 09:29:43;;;;;;;4.67;4.37;;;6.40;99.90;;;;;;5036356;28;20201;-68
2021/12/26 09:32:10;;;;;;;4.37;4.07;;;6.60;99.90;;;;;;5034809;28;20213;-68
2021/12/26 09:34:37;;;;;;;5.17;4.87;;;6.50;99.90;;;;;;5034235;28;20773;-67
2021/12/26 09:37:07;;;;;;;4.53;4.33;;;6.50;99.90;;;;;;5032553;28;20283;-67
2021/12/26 09:39:36;;;;;;;4.73;4.43;;;6.50;99.90;;;;;;5034471;28;20204;-67
2021/12/26 09:42:04;;;;;;;5.40;5.10;;;6.40;99.90;;;;;;5035225;28;20296;-66
2021/12/26 09:44:31;;;;;;;4.60;4.30;;;6.20;99.90;;;;;;5035374;28;20220;-68
2021/12/26 09:46:59;;;;;;;5.10;4.80;;;6.10;99.90;;;;;;5035358;28;20271;-67
2021/12/26 09:49:26;;;;;;;4.87;4.57;;;6.10;99.90;;;;;;5035555;28;20286;-68
2021/12/26 09:51:53;;;;;;;5.13;4.83;;;5.90;99.90;;;;;;5034924;28;20713;-69
2021/12/26 09:54:20;;;;;;;5.20;4.90;;;6.00;99.90;;;;;;5034560;28;20236;-68
2021/12/26 09:56:48;;;;;;;4.73;4.43;;;5.70;99.90;;;;;;5034682;28;20221;-66
2021/12/26 09:59:17;;;;;;;5.03;4.73;;;5.70;99.90;;;;;;5034240;28;20675;-67
2021/12/26 10:01:47;;;;;;;4.30;4.10;;;5.80;99.90;;;;;;5032913;28;20230;-66
2021/12/26 10:04:22;;;;;;;5.20;4.90;;;5.90;99.90;;;;;;5032649;28;20235;-67
2021/12/26 10:06:50;;;;;;;4.87;4.57;;;5.90;99.90;;;;;;5033138;28;20235;-68
2021/12/26 10:09:20;;;;;;;5.27;4.97;;;5.90;99.90;;;;;;5033569;28;20212;-68
2021/12/26 10:11:49;;;;;;;5.77;5.47;;;5.90;99.90;;;;;;5033722;28;20211;-68
2021/12/26 10:14:18;;;;;;;5.90;5.50;;;6.00;99.90;;;;;;5041656;28;20307;-66
2021/12/26 10:16:47;;;;;;;5.63;5.33;;;6.00;99.90;;;;;;5042593;28;20212;-68
2021/12/26 10:19:15;;;;;;;5.10;4.80;;;6.00;99.90;;;;;;5037422;28;20291;-66
2021/12/26 10:21:44;;;;;;;5.20;4.90;;;6.10;99.90;;;;;;5035094;28;20224;-67
2021/12/26 10:24:18;;;;;;;6.20;5.80;;;6.20;99.90;;;;;;5033376;28;20694;-69
2021/12/26 10:26:47;;;;;;;6.23;5.83;;;6.20;99.90;;;;;;5047400;22;20242;-61
2021/12/26 10:29:33;;;;;;;5.87;5.50;;;6.10;99.90;;;;;;5029881;28;20283;-63
2021/12/26 10:32:06;;;;;;;6.67;6.27;;;6.00;99.90;;;;;;5031818;28;20224;-62
2021/12/26 10:34:39;;;;;;;5.90;5.50;;;5.90;99.90;;;;;;5031047;28;20212;-61
2021/12/26 10:37:11;;;;;;;6.00;5.60;;;5.90;99.90;;;;;;5032039;28;20921;-61
2021/12/26 10:39:41;;;;;;;5.77;5.47;;;5.90;99.90;;;;;;5032913;28;20256;-62
2021/12/26 10:42:13;;;;;;;5.93;5.53;;;5.90;99.90;;;;;;5033255;28;20205;-63
2021/12/26 10:44:42;;;;;;;5.67;5.37;;;5.90;99.90;;;;;;5034722;28;20212;-62
2021/12/26 10:47:13;;;;;;;6.90;6.40;;;5.90;99.90;;;;;;5044190;28;20229;-62
2021/12/26 10:49:44;;;;;;;6.00;5.60;;;5.90;99.90;;;;;;5045925;28;20264;-63
2021/12/26 10:52:25;;;;;;;6.00;5.60;;;5.90;99.90;;;;;;5037093;28;20666;-61
2021/12/26 10:54:56;;;;;;;5.40;5.10;;;6.10;99.90;;;;;;5044641;28;20231;-63
2021/12/26 10:57:26;;;;;;;5.17;4.87;;;6.20;99.90;;;;;;5044292;28;20791;-61
2021/12/26 11:00:12;;;;;;;5.13;4.83;;;6.30;99.90;;;;;;5041529;28;20308;-62
2021/12/26 11:02:41;;;;;;;4.93;4.63;;;6.40;99.90;;;;;;5032656;28;20284;-61
2021/12/26 11:05:10;;;;;;;4.97;4.67;;;6.30;99.90;;;;;;5032505;28;20268;-63
2021/12/26 11:07:45;;;;;;;5.13;4.83;;;6.40;99.90;;;;;;5031899;28;20484;-62
2021/12/26 11:10:16;;;;;;;4.73;4.43;;;6.50;99.90;;;;;;5026790;28;20231;-63
2021/12/26 11:12:46;;;;;;;5.00;4.70;;;6.60;99.90;;;;;;5033564;28;20247;-62
2021/12/26 11:15:14;;;;;;;5.27;4.97;;;6.60;99.90;;;;;;5033376;28;20291;-63
2021/12/26 11:17:44;;;;;;;5.80;5.40;;;6.60;99.90;;;;;;5032478;28;20268;-63
2021/12/26 11:20:27;;;;;;;5.37;5.07;;;6.60;99.90;;;;;;5049111;28;20209;-63
2021/12/26 11:22:56;;;;;;;5.57;5.20;;;6.50;99.90;;;;;;5051681;28;20181;-62
2021/12/26 11:25:23;;;;;;;5.47;5.17;;;6.50;99.90;;;;;;5050314;28;20239;-64
2021/12/26 11:27:51;;;;;;;4.90;4.60;;;6.50;99.90;;;;;;5049243;28;20315;-63
2021/12/26 11:30:18;;;;;;;5.30;5.00;;;6.60;99.90;;;;;;5035668;28;20209;-63
2021/12/26 11:32:46;;;;;;;5.83;5.43;;;6.60;99.90;;;;;;5033040;28;20299;-62
2021/12/26 11:35:14;;;;;;;4.93;4.63;;;6.60;99.90;;;;;;5035267;28;20239;-62
2021/12/26 11:37:41;;;;;;;5.30;5.00;;;6.80;99.90;;;;;;5032497;28;20263;-63
2021/12/26 11:40:12;;;;;;;5.23;4.93;;;6.90;99.90;;;;;;5033737;28;20363;-63
2021/12/26 11:43:12;;;;;;;5.00;4.70;;;7.00;99.90;;;;;;5032252;28;20280;-62
2021/12/26 11:45:46;;;;;;;4.67;4.37;;;7.10;99.90;;;;;;5033449;28;20292;-62
2021/12/26 11:49:07;;;;;;;4.80;4.50;;;7.30;99.90;;;;;;5032781;28;20184;-62
2021/12/26 11:52:15;;;;;;;4.50;4.20;;;7.40;99.90;;;;;;4988529;28;20230;-61
2021/12/26 11:54:55;;;;;;;5.30;5.00;;;7.30;99.90;;;;;;4957984;28;20235;-62
2021/12/26 11:57:50;;;;;;;5.03;4.73;;;7.30;99.90;;;;;;4953407;28;20233;-62
2021/12/26 12:00:20;;;;;;;4.80;4.50;;;7.30;99.90;;;;;;4953242;28;20204;-62
2021/12/26 12:02:49;;;;;;;4.67;4.37;;;7.30;99.90;;;;;;4961335;28;20338;-63
2021/12/26 12:05:19;;;;;;;4.47;4.23;;;7.30;99.90;;;;;;4969866;28;20426;-63
2021/12/26 12:07:57;;;;;;;4.87;4.57;;;7.30;99.90;;;;;;4970813;28;20301;-63
2021/12/26 12:10:56;;;;;;;4.30;4.10;;;7.20;99.90;;;;;;4971833;28;20252;-64
2021/12/26 12:13:53;;;;;;;4.50;4.30;;;7.20;99.90;;;;;;4963118;28;20207;-64
2021/12/26 12:16:33;;;;;;;4.20;4.00;;;7.10;99.90;;;;;;4969585;28;20695;-63
2021/12/26 12:19:04;;;;;;;4.67;4.37;;;7.10;99.90;;;;;;4969006;28;20210;-64
2021/12/26 12:21:35;;;;;;;4.43;4.23;;;7.30;99.90;;;;;;4969274;28;20230;-64
2021/12/26 12:24:05;;;;;;;4.50;4.20;;;7.40;99.90;;;;;;4969272;28;20282;-63
2021/12/26 12:26:43;;;;;;;4.47;4.17;;;7.40;99.90;;;;;;5024258;28;20271;-63
2021/12/26 12:29:14;;;;;;;4.33;4.03;;;7.60;99.90;;;;;;5030367;28;20584;-62
2021/12/26 12:31:41;;;;;;;4.50;4.20;;;7.70;99.90;;;;;;5029874;28;20571;-63
2021/12/26 12:34:10;;;;;;;4.53;4.23;;;7.70;99.90;;;;;;5030197;28;20295;-61
2021/12/26 12:36:40;;;;;;;5.00;4.70;;;7.80;99.90;;;;;;5031841;28;20317;-62
2021/12/26 12:39:14;;;;;;;4.30;4.10;;;7.80;99.90;;;;;;5033949;28;20205;-63
2021/12/26 12:41:44;;;;;;;4.50;4.30;;;7.80;99.90;;;;;;5033809;28;20304;-63
2021/12/26 12:44:31;;;;;;;4.43;4.23;;;7.80;99.90;;;;;;5034612;28;20279;-63
2021/12/26 12:47:02;;;;;;;4.50;4.20;;;7.90;99.90;;;;;;5035445;28;20422;-63
2021/12/26 12:49:47;;;;;;;4.60;4.30;;;8.00;99.90;;;;;;5045384;28;20216;-62
2021/12/26 12:52:46;;;;;;;5.70;5.40;;;8.10;99.90;;;;;;5034611;28;20280;-62
2021/12/26 12:55:18;;;;;;;6.37;5.97;;;8.20;99.90;;;;;;5033939;28;20215;-63
2021/12/26 12:57:48;;;;;;;6.53;6.13;;;8.00;99.90;;;;;;5032542;28;20317;-62
2021/12/26 13:00:44;;;;;;;6.00;5.60;;;7.90;99.90;;;;;;5032995;28;20193;-62
2021/12/26 13:03:20;;;;;;;5.00;4.70;;;7.90;99.90;;;;;;5034045;28;20723;-63
2021/12/26 13:05:48;;;;;;;5.40;5.10;;;7.80;99.90;;;;;;5034763;28;20224;-63
2021/12/26 13:08:18;;;;;;;5.33;5.03;;;7.70;99.90;;;;;;5035221;28;20255;-64
2021/12/26 13:10:50;;;;;;;4.90;4.60;;;7.60;99.90;;;;;;5036300;28;20208;-64